createdAt,value
2018-02-15T00:00:30.979Z,22.60
2018-02-15T00:02:57.592Z,22.61
2018-02-15T00:05:24.243Z,22.67
2018-02-15T00:07:50.843Z,22.66
2018-02-15T00:10:17.360Z,22.62
2018-02-15T00:12:44.029Z,22.61
2018-02-15T00:15:10.600Z,22.64
2018-02-15T00:17:37.162Z,22.69
2018-02-15T00:20:03.726Z,22.69
2018-02-15T00:22:30.362Z,22.63
2018-02-15T00:24:56.944Z,22.61
2018-02-15T00:27:23.526Z,22.57
2018-02-15T00:29:50.094Z,22.61
2018-02-15T00:32:16.678Z,22.58
2018-02-15T00:34:43.288Z,22.47
2018-02-15T00:37:09.902Z,22.38
2018-02-15T00:39:36.473Z,22.45
2018-02-15T00:42:03.047Z,22.42
2018-02-15T00:44:29.712Z,22.39
2018-02-15T00:46:56.285Z,22.50
2018-02-15T00:49:22.879Z,22.53
2018-02-15T00:51:49.491Z,22.34
2018-02-15T00:54:16.123Z,22.52
2018-02-15T00:56:42.715Z,22.48
2018-02-15T00:59:09.303Z,22.49
2018-02-15T01:01:35.859Z,22.49
2018-02-15T01:04:02.553Z,22.44
2018-02-15T01:06:29.152Z,22.48
2018-02-15T01:08:55.760Z,22.47
2018-02-15T01:11:22.338Z,22.38
2018-02-15T01:13:48.935Z,22.44
2018-02-15T01:16:15.524Z,22.54
2018-02-15T01:18:42.103Z,22.52
2018-02-15T01:21:08.778Z,22.54
2018-02-15T01:23:35.360Z,22.45
2018-02-15T01:26:02.002Z,22.48
2018-02-15T01:28:28.610Z,22.52
2018-02-15T01:30:55.219Z,22.51
2018-02-15T01:33:21.858Z,22.48
2018-02-15T01:35:48.450Z,22.45
2018-02-15T01:38:15.147Z,22.46
2018-02-15T01:40:41.729Z,22.48
2018-02-15T01:43:08.325Z,22.49
2018-02-15T01:45:35.018Z,22.44
2018-02-15T01:48:01.584Z,22.49
2018-02-15T01:50:28.165Z,22.44
2018-02-15T01:52:54.786Z,22.44
2018-02-15T01:55:21.354Z,22.47
2018-02-15T01:57:47.977Z,22.47
2018-02-15T02:00:14.571Z,22.47
2018-02-15T02:02:41.125Z,22.48
2018-02-15T02:05:07.713Z,22.45
2018-02-15T02:07:34.270Z,22.47
2018-02-15T02:10:00.832Z,22.39
2018-02-15T02:12:27.417Z,22.41
2018-02-15T02:14:53.995Z,22.33
2018-02-15T02:17:20.590Z,22.25
2018-02-15T02:19:47.172Z,22.26
2018-02-15T02:22:13.845Z,22.32
2018-02-15T02:24:40.413Z,22.33
2018-02-15T02:27:06.980Z,22.34
2018-02-15T02:29:33.586Z,22.27
2018-02-15T02:32:00.186Z,22.32
2018-02-15T02:34:26.793Z,22.32
2018-02-15T02:36:53.388Z,22.33
2018-02-15T02:39:20.021Z,22.38
2018-02-15T02:41:46.713Z,22.38
2018-02-15T02:44:13.286Z,22.34
2018-02-15T02:46:39.912Z,22.36
2018-02-15T02:49:06.550Z,22.37
2018-02-15T02:51:33.138Z,22.28
2018-02-15T02:53:59.757Z,22.28
2018-02-15T02:56:26.341Z,22.42
2018-02-15T02:58:52.914Z,22.32
2018-02-15T03:01:19.531Z,22.24
2018-02-15T03:03:46.138Z,22.16
2018-02-15T03:06:12.726Z,22.21
2018-02-15T03:08:39.342Z,22.20
2018-02-15T03:11:05.972Z,22.25
2018-02-15T03:13:32.587Z,22.22
2018-02-15T03:15:59.202Z,22.08
2018-02-15T03:18:25.792Z,22.22
2018-02-15T03:20:52.452Z,22.25
2018-02-15T03:23:19.074Z,22.15
2018-02-15T03:25:45.709Z,22.19
2018-02-15T03:28:12.284Z,22.19
2018-02-15T03:30:38.902Z,22.11
2018-02-15T03:33:05.503Z,22.18
2018-02-15T03:35:32.120Z,22.26
2018-02-15T03:37:58.685Z,22.20
2018-02-15T03:40:25.338Z,22.18
2018-02-15T03:42:51.936Z,22.17
2018-02-15T03:45:18.550Z,22.03
2018-02-15T03:47:45.218Z,21.91
2018-02-15T03:50:11.858Z,22.02
2018-02-15T03:52:38.503Z,22.03
2018-02-15T03:55:05.068Z,22.04
2018-02-15T03:57:31.669Z,21.99
2018-02-15T03:59:58.248Z,22.09
2018-02-15T04:02:24.875Z,22.08
2018-02-15T04:04:51.479Z,22.10
2018-02-15T04:07:18.094Z,22.09
2018-02-15T04:09:44.681Z,22.04
2018-02-15T04:12:11.317Z,22.06
2018-02-15T04:14:37.903Z,22.20
2018-02-15T04:17:04.532Z,22.16
2018-02-15T04:19:31.145Z,21.48
2018-02-15T04:21:57.773Z,20.92
2018-02-15T04:24:24.347Z,20.36
2018-02-15T04:26:51.010Z,20.18
2018-02-15T04:29:17.574Z,20.02
2018-02-15T04:31:44.133Z,19.94
2018-02-15T04:34:10.783Z,20.29
2018-02-15T04:36:37.377Z,20.83
2018-02-15T04:39:04.001Z,21.17
2018-02-15T04:41:30.570Z,21.35
2018-02-15T04:43:57.169Z,21.40
2018-02-15T04:46:23.737Z,21.68
2018-02-15T04:48:50.378Z,21.65
2018-02-15T04:51:16.963Z,21.60
2018-02-15T04:53:43.578Z,21.58
2018-02-15T04:56:10.174Z,21.67
2018-02-15T04:58:36.768Z,21.65
2018-02-15T05:01:03.351Z,21.57
2018-02-15T05:03:29.985Z,21.63
2018-02-15T05:05:56.557Z,21.76
2018-02-15T05:08:23.163Z,21.73
2018-02-15T05:10:49.739Z,21.80
2018-02-15T05:13:16.316Z,21.71
2018-02-15T05:15:43.010Z,21.83
2018-02-15T05:18:09.610Z,21.83
2018-02-15T05:20:36.205Z,21.71
2018-02-15T05:23:02.807Z,21.90
2018-02-15T05:25:29.413Z,21.90
2018-02-15T05:27:55.982Z,21.88
2018-02-15T05:30:22.550Z,21.83
2018-02-15T05:32:49.128Z,21.85
2018-02-15T05:35:15.749Z,21.98
2018-02-15T05:37:42.355Z,22.06
2018-02-15T05:40:08.923Z,22.13
2018-02-15T05:42:35.493Z,22.10
2018-02-15T05:45:02.075Z,22.17
2018-02-15T05:47:28.630Z,22.23
2018-02-15T05:49:55.294Z,22.17
2018-02-15T05:52:21.900Z,22.02
2018-02-15T05:54:48.479Z,22.00
2018-02-15T05:57:15.110Z,22.15
2018-02-15T05:59:41.719Z,22.17
2018-02-15T06:02:08.323Z,22.17
2018-02-15T06:04:34.884Z,22.21
2018-02-15T06:07:01.488Z,22.27
2018-02-15T06:09:28.057Z,22.23
2018-02-15T06:11:54.620Z,22.25
2018-02-15T06:14:21.237Z,22.22
2018-02-15T06:16:47.884Z,22.28
2018-02-15T06:19:14.442Z,22.28
2018-02-15T06:21:41.098Z,22.28
2018-02-15T06:24:07.702Z,22.22
2018-02-15T06:26:34.268Z,22.18
2018-02-15T06:29:03.337Z,22.25
2018-02-15T06:31:29.961Z,22.09
2018-02-15T06:33:56.626Z,22.34
2018-02-15T06:36:23.215Z,22.31
2018-02-15T06:38:49.862Z,22.39
2018-02-15T06:41:16.657Z,22.38
2018-02-15T06:43:43.408Z,22.53
2018-02-15T06:46:10.014Z,22.49
2018-02-15T06:48:36.580Z,22.37
2018-02-15T06:51:03.300Z,22.38
2018-02-15T06:53:29.879Z,22.52
2018-02-15T06:55:56.441Z,22.46
2018-02-15T06:58:23.255Z,22.63
2018-02-15T07:00:50.161Z,22.51
2018-02-15T07:03:16.791Z,22.59
2018-02-15T07:05:43.392Z,22.62
2018-02-15T07:08:10.007Z,22.59
2018-02-15T07:10:36.645Z,22.47
2018-02-15T07:13:03.246Z,22.47
2018-02-15T07:15:29.883Z,22.34
2018-02-15T07:17:57.008Z,22.23
2018-02-15T07:20:23.371Z,22.32
2018-02-15T07:22:49.972Z,22.54
2018-02-15T07:25:16.776Z,22.46
2018-02-15T07:27:43.480Z,22.61
2018-02-15T07:30:10.069Z,22.80
2018-02-15T07:32:36.714Z,22.76
2018-02-15T07:35:03.467Z,22.99
2018-02-15T07:37:30.069Z,23.12
2018-02-15T07:39:56.639Z,23.16
2018-02-15T07:42:23.341Z,23.21
2018-02-15T07:44:50.212Z,23.14
2018-02-15T07:47:16.815Z,23.23
2018-02-15T07:49:43.597Z,23.39
2018-02-15T07:52:10.203Z,23.49
2018-02-15T07:54:36.814Z,23.65
2018-02-15T07:57:03.558Z,23.75
2018-02-15T07:59:30.169Z,23.61
2018-02-15T08:01:56.854Z,23.45
2018-02-15T08:04:23.553Z,23.48
2018-02-15T08:06:50.164Z,23.54
2018-02-15T08:09:16.857Z,23.55
2018-02-15T08:11:43.841Z,23.55
2018-02-15T08:14:10.459Z,23.61
2018-02-15T08:16:37.141Z,23.47
2018-02-15T08:19:03.716Z,23.50
2018-02-15T08:21:30.321Z,23.49
2018-02-15T08:23:56.992Z,23.50
2018-02-15T08:26:23.591Z,23.60
2018-02-15T08:28:50.264Z,23.60
2018-02-15T08:31:16.952Z,23.40
2018-02-15T08:33:43.652Z,23.47
2018-02-15T08:36:10.336Z,23.53
2018-02-15T08:38:36.990Z,23.57
2018-02-15T08:41:03.615Z,23.39
2018-02-15T08:43:30.420Z,23.44
2018-02-15T08:45:57.090Z,23.68
2018-02-15T08:48:23.709Z,23.67
2018-02-15T08:50:50.292Z,23.72
2018-02-15T08:53:16.986Z,23.67
2018-02-15T08:55:43.664Z,23.67
2018-02-15T08:58:10.284Z,23.81
2018-02-15T09:00:36.958Z,23.70
2018-02-15T09:03:03.529Z,23.62
2018-02-15T09:05:30.205Z,23.62
2018-02-15T09:07:56.792Z,23.64
2018-02-15T09:10:23.420Z,23.59
2018-02-15T09:12:50.006Z,23.42
2018-02-15T09:15:16.630Z,23.80
2018-02-15T09:17:43.288Z,24.47
2018-02-15T09:20:17.574Z,24.18
2018-02-15T09:22:44.236Z,24.48
2018-02-15T09:25:10.950Z,24.61
2018-02-15T09:27:37.500Z,24.02
2018-02-15T09:30:04.153Z,23.88
2018-02-15T09:32:31.096Z,23.80
2018-02-15T09:34:57.728Z,23.76
2018-02-15T09:37:24.381Z,23.40
2018-02-15T09:44:36.110Z,24.54
2018-02-15T09:47:02.736Z,24.61
2018-02-15T09:51:17.138Z,24.69
2018-02-15T09:53:43.702Z,24.25
2018-02-15T09:56:10.374Z,24.06
2018-02-15T09:58:36.940Z,23.84
2018-02-15T10:01:03.796Z,23.79
2018-02-15T10:03:30.395Z,23.91
2018-02-15T10:05:57.264Z,23.93
2018-02-15T10:08:23.850Z,23.89
2018-02-15T10:10:50.674Z,24.59
2018-02-15T10:13:17.243Z,24.56
2018-02-15T10:15:43.844Z,23.95
2018-02-15T10:18:10.486Z,23.85
2018-02-15T10:20:37.162Z,23.69
2018-02-15T10:23:03.763Z,23.64
2018-02-15T10:25:30.383Z,23.43
2018-02-15T10:27:56.997Z,23.53
2018-02-15T10:30:23.898Z,23.73
2018-02-15T10:32:54.467Z,23.83
2018-02-15T10:35:21.096Z,23.76
2018-02-15T10:37:47.768Z,23.65
2018-02-15T10:40:14.358Z,23.46
2018-02-15T10:42:40.994Z,23.76
2018-02-15T10:45:07.651Z,23.78
2018-02-15T10:47:34.631Z,23.73
2018-02-15T10:50:01.246Z,23.63
2018-02-15T11:37:12.812Z,25.08
2018-02-15T11:39:39.490Z,24.87
2018-02-15T11:42:06.166Z,24.85
2018-02-15T11:44:32.909Z,24.93
2018-02-15T11:46:59.502Z,24.66
2018-02-15T11:49:26.192Z,24.59
2018-02-15T11:51:52.814Z,24.52
2018-02-15T11:54:19.413Z,24.55
2018-02-15T11:56:46.065Z,24.61
2018-02-15T11:59:12.704Z,24.63
2018-02-15T12:01:39.340Z,24.67
2018-02-15T12:04:05.983Z,24.48
2018-02-15T12:06:32.656Z,24.51
2018-02-15T12:08:59.307Z,24.66
2018-02-15T12:11:26.071Z,24.77
2018-02-15T12:13:55.093Z,24.79
2018-02-15T12:16:21.967Z,24.53
2018-02-15T12:18:48.878Z,24.79
2018-02-15T12:21:15.745Z,24.73
2018-02-15T12:23:42.571Z,24.62
2018-02-15T12:26:09.193Z,24.45
2018-02-15T12:28:35.916Z,24.63
2018-02-15T12:31:02.610Z,24.77
2018-02-15T12:33:29.242Z,24.75
2018-02-15T12:35:55.989Z,24.63
2018-02-15T12:38:22.660Z,24.53
2018-02-15T12:40:49.273Z,24.75
2018-02-15T12:43:15.922Z,24.65
2018-02-15T12:45:42.579Z,24.64
2018-02-15T12:48:09.216Z,24.63
2018-02-15T12:50:35.808Z,25.03
2018-02-15T12:53:02.575Z,25.12
2018-02-15T12:55:29.219Z,25.07
2018-02-15T12:57:58.065Z,24.70
2018-02-15T13:00:24.665Z,24.64
2018-02-15T13:02:51.307Z,24.63
2018-02-15T13:05:17.891Z,24.71
2018-02-15T13:07:44.609Z,24.86
2018-02-15T13:10:13.395Z,24.41
2018-02-15T13:12:40.041Z,24.64
2018-02-15T13:15:06.711Z,24.65
2018-02-15T13:17:50.287Z,24.96
2018-02-15T13:20:17.254Z,24.59
2018-02-15T13:22:43.949Z,24.63
2018-02-15T13:25:11.340Z,24.54
2018-02-15T13:27:38.032Z,24.47
2018-02-15T13:30:04.760Z,24.40
2018-02-15T13:32:31.605Z,24.28
2018-02-15T13:34:58.425Z,24.59
2018-02-15T13:37:25.362Z,24.48
2018-02-15T13:39:52.573Z,24.75
2018-02-15T13:42:19.247Z,24.56
2018-02-15T13:44:46.308Z,24.44
2018-02-15T13:47:13.587Z,24.53
2018-02-15T13:49:40.523Z,24.49
2018-02-15T13:52:07.410Z,24.43
2018-02-15T13:54:34.208Z,24.75
2018-02-15T13:57:02.479Z,24.81
2018-02-15T13:59:29.691Z,24.77
2018-02-15T14:01:56.782Z,24.60
2018-02-15T14:04:26.617Z,24.51
2018-02-15T14:06:53.205Z,24.73
2018-02-15T14:09:20.678Z,24.57
2018-02-15T14:11:47.822Z,24.62
2018-02-15T14:14:14.670Z,24.36
2018-02-15T14:16:41.550Z,24.56
2018-02-15T14:19:08.752Z,24.50
2018-02-15T14:21:35.468Z,24.39
2018-02-15T14:24:08.622Z,24.47
2018-02-15T14:26:35.371Z,24.29
2018-02-15T14:29:02.275Z,24.49
2018-02-15T14:31:31.309Z,24.42
2018-02-15T14:33:58.142Z,24.54
2018-02-15T14:36:24.804Z,24.36
2018-02-15T14:38:51.915Z,24.27
2018-02-15T14:41:19.251Z,24.30
2018-02-15T14:43:51.723Z,24.54
2018-02-15T14:46:18.650Z,24.23
2018-02-15T14:48:45.350Z,24.36
2018-02-15T14:51:11.932Z,24.61
2018-02-15T14:53:41.505Z,24.26
2018-02-15T14:56:08.077Z,24.16
2018-02-15T14:58:34.968Z,24.33
2018-02-15T15:01:01.563Z,24.02
2018-02-15T15:03:28.414Z,24.20
2018-02-15T15:07:21.392Z,24.32
2018-02-15T15:09:48.535Z,24.07
2018-02-15T15:15:46.193Z,23.65
2018-02-15T15:18:12.866Z,23.63
2018-02-15T15:20:39.499Z,23.78
2018-02-15T15:23:06.064Z,23.96
2018-02-15T15:25:32.680Z,24.17
2018-02-15T15:31:33.286Z,24.29
2018-02-15T15:33:59.948Z,24.24
2018-02-15T15:38:25.404Z,24.31
2018-02-15T15:40:52.520Z,24.40
2018-02-15T15:44:09.079Z,24.30
2018-02-15T15:46:35.696Z,24.55
2018-02-15T15:49:05.269Z,24.42
2018-02-15T15:51:32.146Z,24.47
2018-02-15T15:53:58.780Z,24.17
2018-02-15T15:56:25.398Z,24.15
2018-02-15T15:58:52.414Z,24.14
2018-02-15T16:01:19.084Z,24.02
2018-02-15T16:03:45.759Z,24.00
2018-02-15T16:06:12.374Z,24.24
2018-02-15T16:08:38.961Z,24.05
2018-02-15T16:11:05.547Z,24.00
2018-02-15T16:13:32.152Z,23.94
2018-02-15T16:15:58.803Z,24.00
2018-02-15T16:18:25.502Z,24.13
2018-02-15T16:20:52.065Z,24.19
2018-02-15T16:23:18.707Z,24.11
2018-02-15T16:25:45.358Z,23.96
2018-02-15T16:28:11.946Z,23.83
2018-02-15T16:30:38.553Z,23.96
2018-02-15T16:33:05.185Z,23.90
2018-02-15T16:35:31.865Z,23.85
2018-02-15T16:37:58.441Z,23.79
2018-02-15T16:40:25.042Z,23.82
2018-02-15T16:42:51.721Z,23.86
2018-02-15T16:45:20.303Z,23.84
2018-02-15T16:47:46.936Z,24.03
2018-02-15T16:50:13.549Z,23.80
2018-02-15T16:52:40.158Z,23.84
2018-02-15T16:55:06.761Z,23.75
2018-02-15T16:57:33.638Z,23.75
2018-02-15T17:00:00.255Z,23.74
2018-02-15T17:02:26.853Z,23.70
2018-02-15T17:04:53.424Z,23.76
2018-02-15T17:07:20.066Z,23.76
2018-02-15T17:09:46.639Z,23.73
2018-02-15T17:12:13.198Z,23.79
2018-02-15T17:14:39.759Z,23.60
2018-02-15T17:17:06.406Z,23.73
2018-02-15T17:21:02.235Z,23.54
2018-02-15T17:23:28.793Z,23.40
2018-02-15T17:25:55.461Z,23.39
2018-02-15T17:28:22.027Z,23.48
2018-02-15T17:30:48.656Z,23.59
2018-02-15T17:33:15.296Z,23.58
2018-02-15T17:35:41.897Z,23.38
2018-02-15T17:38:08.536Z,23.49
2018-02-15T17:40:35.125Z,23.42
2018-02-15T17:43:01.872Z,23.36
2018-02-15T17:45:28.411Z,23.52
2018-02-15T17:47:55.044Z,23.38
2018-02-15T17:50:21.639Z,23.29
2018-02-15T17:56:53.353Z,23.36
2018-02-15T17:59:19.960Z,23.29
2018-02-15T18:03:57.191Z,23.23
2018-02-15T18:06:23.753Z,23.23
2018-02-15T18:08:50.361Z,23.34
2018-02-15T18:13:57.217Z,23.33
2018-02-15T18:17:09.926Z,23.48
2018-02-15T18:19:36.538Z,23.39
2018-02-15T18:22:03.175Z,23.36
2018-02-15T18:24:29.768Z,23.31
2018-02-15T18:26:56.350Z,23.35
2018-02-15T18:29:22.925Z,23.31
2018-02-15T18:31:49.564Z,23.31
2018-02-15T18:34:16.133Z,23.30
2018-02-15T18:36:42.758Z,23.23
2018-02-15T18:39:09.328Z,23.29
2018-02-15T18:41:35.995Z,23.28
2018-02-15T18:44:02.777Z,23.21
2018-02-15T18:46:29.359Z,23.01
2018-02-15T18:48:55.961Z,23.18
2018-02-15T18:51:22.593Z,23.21
2018-02-15T18:53:49.176Z,23.20
2018-02-15T18:56:15.785Z,23.17
2018-02-15T18:58:42.368Z,23.15
2018-02-15T19:01:08.920Z,23.14
2018-02-15T19:03:35.486Z,23.17
2018-02-15T19:06:02.051Z,23.17
2018-02-15T19:08:28.670Z,23.15
2018-02-15T19:10:55.261Z,23.16
2018-02-15T19:13:21.831Z,23.10
2018-02-15T19:15:48.476Z,23.08
2018-02-15T19:18:15.091Z,23.07
2018-02-15T19:20:41.715Z,23.05
2018-02-15T19:23:08.346Z,23.04
2018-02-15T19:25:34.992Z,22.99
2018-02-15T19:28:01.606Z,23.01
2018-02-15T19:30:28.191Z,23.03
2018-02-15T19:32:54.766Z,23.01
2018-02-15T19:35:21.372Z,23.00
2018-02-15T19:37:47.957Z,22.88
2018-02-15T19:40:14.593Z,22.95
2018-02-15T19:42:41.154Z,22.97
2018-02-15T19:45:07.732Z,22.96
2018-02-15T19:47:34.363Z,22.88
2018-02-15T19:50:00.936Z,22.93
2018-02-15T19:52:27.512Z,22.94
2018-02-15T19:54:54.120Z,22.85
2018-02-15T19:57:20.709Z,22.94
2018-02-15T19:59:47.272Z,22.90
2018-02-15T20:02:13.860Z,22.82
2018-02-15T20:04:40.424Z,22.77
2018-02-15T20:07:07.082Z,22.74
2018-02-15T20:09:33.652Z,22.71
2018-02-15T20:12:00.239Z,22.71
2018-02-15T20:14:26.849Z,22.75
2018-02-15T20:16:53.416Z,22.70
2018-02-15T20:19:20.033Z,22.61
2018-02-15T20:21:46.644Z,22.74
2018-02-15T20:24:13.252Z,22.61
2018-02-15T20:26:39.855Z,22.75
2018-02-15T20:29:06.548Z,22.75
2018-02-15T20:31:33.137Z,22.76
2018-02-15T20:33:59.741Z,22.78
2018-02-15T20:36:26.305Z,22.74
2018-02-15T20:38:52.886Z,22.73
2018-02-15T20:41:19.569Z,22.71
2018-02-15T20:43:46.226Z,22.73
2018-02-15T20:46:12.841Z,22.68
2018-02-15T20:48:39.424Z,22.71
2018-02-15T20:51:06.049Z,22.71
2018-02-15T20:53:32.634Z,22.75
2018-02-15T20:55:59.234Z,22.67
2018-02-15T20:58:25.819Z,22.67
2018-02-15T21:00:52.408Z,22.69
2018-02-15T21:03:19.036Z,22.67
2018-02-15T21:05:45.640Z,22.66
2018-02-15T21:08:12.215Z,22.65
2018-02-15T21:10:38.841Z,22.66
2018-02-15T21:13:05.459Z,22.62
2018-02-15T21:15:32.013Z,22.65
2018-02-15T21:17:58.593Z,22.64
2018-02-15T21:20:25.169Z,22.54
2018-02-15T21:22:51.799Z,22.62
2018-02-15T21:25:18.383Z,22.65
2018-02-15T21:27:44.989Z,22.64
2018-02-15T21:30:11.574Z,22.59
2018-02-15T21:32:38.164Z,22.61
2018-02-15T21:35:04.742Z,22.62
2018-02-15T21:37:31.325Z,22.62
2018-02-15T21:39:57.952Z,22.60
2018-02-15T21:42:24.523Z,22.65
2018-02-15T21:44:51.183Z,22.59
2018-02-15T21:47:17.792Z,22.50
2018-02-15T21:49:44.388Z,22.44
2018-02-15T21:52:10.952Z,22.38
2018-02-15T21:54:37.522Z,22.42
2018-02-15T21:57:04.123Z,22.39
2018-02-15T21:59:30.767Z,22.40
2018-02-15T22:01:57.329Z,22.38
2018-02-15T22:04:23.901Z,22.47
2018-02-15T22:06:50.473Z,21.93
2018-02-15T22:09:17.063Z,22.15
2018-02-15T22:11:43.657Z,22.43
2018-02-15T22:14:10.249Z,22.35
2018-02-15T22:16:36.881Z,22.15
2018-02-15T22:19:03.451Z,22.41
2018-02-15T22:21:30.074Z,22.36
2018-02-15T22:23:56.653Z,22.40
2018-02-15T22:26:23.221Z,22.35
2018-02-15T22:28:49.786Z,22.46
2018-02-15T22:31:16.402Z,22.38
2018-02-15T22:33:42.968Z,22.39
2018-02-15T22:36:09.548Z,22.35
2018-02-15T22:38:36.117Z,22.32
2018-02-15T22:41:02.711Z,22.21
2018-02-15T22:43:29.277Z,22.23
2018-02-15T22:45:55.835Z,22.23
2018-02-15T22:48:22.442Z,22.23
2018-02-15T22:50:49.030Z,22.23
2018-02-15T22:53:15.642Z,22.29
2018-02-15T22:55:42.206Z,22.21
2018-02-15T22:58:08.924Z,22.25
2018-02-15T23:00:35.493Z,22.19
2018-02-15T23:03:02.124Z,22.27
2018-02-15T23:05:28.707Z,22.31
2018-02-15T23:07:55.330Z,22.27
2018-02-15T23:10:21.955Z,22.29
2018-02-15T23:12:48.575Z,22.24
2018-02-15T23:15:15.241Z,22.23
2018-02-15T23:17:41.809Z,22.29
2018-02-15T23:20:08.419Z,22.26
2018-02-15T23:22:35.027Z,22.07
2018-02-15T23:25:01.631Z,22.05
2018-02-15T23:27:28.483Z,21.84
2018-02-15T23:29:55.051Z,21.72
2018-02-15T23:32:21.656Z,21.71
2018-02-15T23:34:48.303Z,21.81
2018-02-15T23:37:14.949Z,21.81
2018-02-15T23:39:41.513Z,21.79
2018-02-15T23:42:08.121Z,21.98
2018-02-15T23:44:34.700Z,21.88
2018-02-15T23:47:01.347Z,22.00
2018-02-15T23:49:27.925Z,22.04
2018-02-15T23:51:54.497Z,22.01
2018-02-15T23:54:21.086Z,22.05
2018-02-15T23:56:47.709Z,21.97
2018-02-15T23:59:14.335Z,22.08
